Mound, MN (55364)

2:14 AM CDT en Junio 25, 2017 (GMT -0500)
Grandview | | Change Station

Alt 968 ft 44.94 °N, 93.67 °W | Updated 57 seconds ago

Nublado
Nublado
55.4 ° F
Sensación térmica 55.4 ° F
N
1.0
Viento Variable Viento desde Oeste
Gusts 10.0 mph

Hoy
Alta -- | Baja -- ° F
--% Posibilidad de precipitaciones
Ayer
Alta -- | Baja -- ° F
Precip. -- pul
Presión 30.07 pul
Visibilidad 10.0 Millas
Nubes Nubes dispersas 3200 ft
Nublado 7000 ft
Punto de rocío 50 ° F
Humedad 83%
Precipitaciones 0.00 pul
Espesor de la nieve No disponible.
5:29 AM 9:05 PM
Luna nueva, 2% visible
METAR KFCM 250653Z AUTO 31009KT 10SM SCT032 OVC070 14/09 A3007 RMK AO2 SLP182 T01440089
Presión 30.07 pul
Visibilidad 10.0 Millas
Nubes Nubes dispersas 3200 ft
Nublado 7000 ft
Punto de rocío 50 ° F
Humedad 83%
Precipitaciones 0.00 pul
Espesor de la nieve No disponible.
5:29 AM 9:05 PM
Luna nueva, 2% visible
METAR KFCM 250653Z AUTO 31009KT 10SM SCT032 OVC070 14/09 A3007 RMK AO2 SLP182 T01440089

Get Severe Weather Alerts

Thanks for signing up!

Be on the lookout for a verification email in your inbox.

You'll start receiving the daily forecast at 6 AM.

×

10-Day Weather Forecast

Almanac

Astronomía

Jun. 25, 2017 Salida Puesta
Hora real
Crepúsculo civil
Crepúsculo náutico
Crepúsculo astronómico
Luna
Horas de luz
Horas de luz
Tomorrow will be .
, % of the Moon is Illuminated

Extremos de hoy

Máximos del estado Bajos del estado

Community

WunderPhotos

Category 6

Welcome to Category 6. This is the collective home for Weather Underground's featured writeups by Dr. Jeff Masters (right), Bob Henson (left), Chris Burt, and other regular contributors.

Nearby

Calidad del aire

  Calidad del aire Índice AQ Contaminante
Not available.

Grosos de nieve

Estación Profundido Altura

Actividad de terremotos

Ciudad Distance Mag. Tiempo y dato
Magnitud mínima muestra es 2,5.

Temperaturas de aguas costeras

Lugar Temperatura

Stations

Estaciones meteorológicas cercanas

Ubicación de la estación Temp. Vientos helados Punto de rocío Humedad Viento Precip. Alt Actualizado Tipo
                   

Watches & Warnings

There are currently no watches in effect.